Weather

EOSM Weather Station at 20:22 on 20/10/17

Wind: 8kt S ( 9mph 187° ) Today's High: 15kt at 19:14 QFE: 995mb QNH: 999mb (Steady) Temp: 12°C Dew Point: 10°C Humidity: 87% Rain: None Sunrise: 7:53 Sunset: 17:56

TAFs

  • Edinburgh TAF EGPH 201658Z 2018/2118 24006KT 9999 SCT040 BECMG 2021/2024 09012KT TEMPO 2021/2102 7000 RA BKN012 PROB40 TEMPO 2109/2118 7000 SHRA
  • Leuchars TAF EGQL 201643Z 2018/2103 14005KT 9999 BKN045 PROB30 TEMPO 2018/2021 SCT020 PROB40 TEMPO 2023/2103 5000 -RADZ SCT008 PROB30 TEMPO 2101/2103 4000 RA SCT005 BKN008

Live Airfield Webcams

Looking north towards Berwick Law Looking west Looking east

Windy.com Forecast

Met Office Five Day Forecast

OZEE AND BLUE SKY BLUE FLYING SUITS

We are offering a 5% discount on the price of Ozee and Blue Sky Blue flying suits - please send an email to jill@eosm.co.uk giving your choice of suit, size and colour preference.

Pooleys advert

Pooleys are supporting East of Scotland Microlights members and guests by offering 5% discount to anyone making a purchase on their website www.pooleys.com. Simply enter the promotional code "EOSM" when you checkout and you will get a 5% discount on whatever you buy.